Time;durP1;ratioP1;P1;durP2;ratioP2;P2;SDS_P1;SDS_P2;PMS_P1;PMS_P2;Temp;Humidity;BMP_temperature;BMP_pressure;BME280_temperature;BME280_humidity;BME280_pressure;Samples;Min_cycle;Max_cycle;Signal;HPM_P1;HPM_P2
2022/07/21 00:01:47;;;;;;;9.65;5.03;;;20.80;99.90;;;;;;4895565;29;20040;-83
2022/07/21 00:04:12;;;;;;;8.55;5.97;;;20.80;99.90;;;;;;4890614;29;20044;-83
2022/07/21 00:06:38;;;;;;;9.88;5.35;;;20.80;99.90;;;;;;4890004;29;20361;-83
2022/07/21 00:09:04;;;;;;;11.90;5.97;;;20.80;99.90;;;;;;4894541;29;20044;-82
2022/07/21 00:11:29;;;;;;;7.25;4.82;;;20.80;99.90;;;;;;4893906;29;20099;-83
2022/07/21 00:13:55;;;;;;;9.32;5.03;;;20.80;99.90;;;;;;4909050;29;20064;-83
2022/07/21 00:16:21;;;;;;;10.25;6.10;;;20.80;99.90;;;;;;4893329;29;20043;-83
2022/07/21 00:18:46;;;;;;;8.10;5.15;;;20.80;99.90;;;;;;4894873;29;20076;-83
2022/07/21 00:21:12;;;;;;;6.93;5.55;;;20.80;99.90;;;;;;4895626;29;20499;-82
2022/07/21 00:23:39;;;;;;;7.28;5.38;;;20.70;99.90;;;;;;4896599;29;20562;-82
2022/07/21 00:26:05;;;;;;;6.38;5.38;;;20.60;99.90;;;;;;4881464;29;20125;-82
2022/07/21 00:28:30;;;;;;;7.45;5.72;;;20.60;99.90;;;;;;4895413;29;20040;-81
2022/07/21 00:30:56;;;;;;;10.65;6.95;;;20.60;99.90;;;;;;4895262;29;20094;-80
2022/07/21 00:33:22;;;;;;;7.78;6.03;;;20.50;99.90;;;;;;4896650;29;20087;-82
2022/07/21 00:35:47;;;;;;;8.65;5.97;;;20.50;99.90;;;;;;4894315;29;20047;-81
2022/07/21 00:38:13;;;;;;;11.93;7.00;;;20.50;99.90;;;;;;4896411;29;20032;-81
2022/07/21 00:40:39;;;;;;;11.27;6.35;;;20.50;99.90;;;;;;4895979;29;20127;-80
2022/07/21 00:43:05;;;;;;;11.05;7.00;;;20.40;99.90;;;;;;4896482;29;20213;-80
2022/07/21 00:45:30;;;;;;;10.65;7.20;;;20.40;99.90;;;;;;4897487;29;20101;-80
2022/07/21 00:47:56;;;;;;;11.10;6.55;;;20.40;99.90;;;;;;4892360;29;20051;-79
2022/07/21 00:50:22;;;;;;;8.65;6.82;;;20.30;99.90;;;;;;4890662;29;20040;-79
2022/07/21 00:52:48;;;;;;;9.23;6.90;;;20.20;99.90;;;;;;4893219;29;20068;-78
2022/07/21 00:55:17;;;;;;;10.15;6.90;;;20.10;99.90;;;;;;4892120;29;20040;-77
2022/07/21 00:57:45;;;;;;;9.48;7.10;;;20.10;99.90;;;;;;4892401;29;20059;-78
2022/07/21 01:00:20;;;;;;;11.73;6.82;;;20.00;99.90;;;;;;4891901;29;20082;-78
2022/07/21 01:02:46;;;;;;;10.55;7.60;;;19.90;99.90;;;;;;4892325;29;20056;-79
2022/07/21 01:05:14;;;;;;;10.48;7.03;;;19.90;99.90;;;;;;4890036;29;20052;-80
2022/07/21 01:07:44;;;;;;;9.35;7.55;;;19.90;99.90;;;;;;4888484;29;20087;-79
2022/07/21 01:10:11;;;;;;;9.73;7.97;;;19.90;99.90;;;;;;4892756;29;20047;-79
2022/07/21 01:12:37;;;;;;;10.35;8.02;;;19.90;99.90;;;;;;4891382;29;20052;-80
2022/07/21 01:15:05;;;;;;;9.38;7.70;;;19.90;99.90;;;;;;4907963;29;20103;-81
2022/07/21 01:17:31;;;;;;;12.15;8.45;;;19.80;99.90;;;;;;4890006;29;20079;-79
2022/07/21 01:19:57;;;;;;;12.50;8.60;;;19.80;99.90;;;;;;4901448;29;20036;-78
2022/07/21 01:22:23;;;;;;;16.15;10.25;;;19.80;99.90;;;;;;4891542;29;20048;-81
2022/07/21 01:24:48;;;;;;;16.10;9.45;;;19.80;99.90;;;;;;4889902;29;20040;-79
2022/07/21 01:27:14;;;;;;;11.30;8.25;;;19.70;99.90;;;;;;4892661;29;20044;-79
2022/07/21 01:29:40;;;;;;;14.65;10.27;;;19.70;99.90;;;;;;4892912;29;20075;-79
2022/07/21 01:32:06;;;;;;;16.05;10.18;;;19.70;99.90;;;;;;4889766;29;20055;-78
2022/07/21 01:34:32;;;;;;;12.23;7.95;;;19.70;99.90;;;;;;4892676;29;20064;-80
2022/07/21 01:36:58;;;;;;;17.65;11.93;;;19.70;99.90;;;;;;4892401;29;20127;-80
2022/07/21 01:42:07;;;;;;;18.60;12.02;;;19.60;99.90;;;;;;4901964;29;20071;-80
2022/07/21 01:44:33;;;;;;;18.73;11.20;;;19.50;99.90;;;;;;4921902;29;20059;-80
2022/07/21 01:46:59;;;;;;;18.17;12.23;;;19.40;99.90;;;;;;4892564;29;20040;-79
2022/07/21 01:49:24;;;;;;;16.02;11.77;;;19.40;99.90;;;;;;4898159;29;20492;-79
2022/07/21 01:51:50;;;;;;;12.23;10.90;;;19.40;99.90;;;;;;4909418;29;20079;-80
2022/07/21 01:54:17;;;;;;;16.13;10.55;;;19.50;99.90;;;;;;4880209;29;20130;-80
2022/07/21 01:56:43;;;;;;;15.27;12.20;;;19.50;99.90;;;;;;4893635;29;20132;-79
2022/07/21 01:59:09;;;;;;;13.05;9.05;;;19.50;99.90;;;;;;4893608;29;20594;-80
2022/07/21 02:01:35;;;;;;;17.20;13.50;;;19.40;99.90;;;;;;4893129;29;20046;-79
2022/07/21 02:04:03;;;;;;;15.20;11.82;;;19.40;99.90;;;;;;4892575;29;20036;-79
2022/07/21 02:06:31;;;;;;;20.10;12.13;;;19.30;99.90;;;;;;4888857;29;20039;-80
2022/07/21 02:08:56;;;;;;;17.35;12.20;;;19.20;99.90;;;;;;4890646;29;20407;-79
2022/07/21 02:11:22;;;;;;;17.35;12.65;;;19.10;99.90;;;;;;4896198;29;20107;-79
2022/07/21 02:13:49;;;;;;;17.42;12.27;;;19.10;99.90;;;;;;4892756;29;20509;-79
2022/07/21 02:16:14;;;;;;;20.10;14.23;;;19.00;99.90;;;;;;4896158;29;20079;-79
2022/07/21 02:18:41;;;;;;;17.48;10.77;;;18.90;99.90;;;;;;4894138;29;20047;-79
2022/07/21 02:21:07;;;;;;;17.67;11.73;;;18.90;99.90;;;;;;4895315;29;20144;-80
2022/07/21 02:23:33;;;;;;;15.85;10.80;;;18.90;99.90;;;;;;4895210;29;20080;-79
2022/07/21 02:25:59;;;;;;;17.25;11.20;;;18.90;99.90;;;;;;4890300;29;20103;-78
2022/07/21 02:28:26;;;;;;;18.70;14.02;;;18.90;99.90;;;;;;4895426;29;20065;-79
2022/07/21 02:30:54;;;;;;;19.55;13.00;;;18.90;99.90;;;;;;4893346;29;20232;-80
2022/07/21 02:33:20;;;;;;;21.15;13.13;;;18.90;99.90;;;;;;4893108;29;20052;-79
2022/07/21 02:35:46;;;;;;;18.38;11.52;;;18.90;99.90;;;;;;4896664;29;20043;-80
2022/07/21 02:38:12;;;;;;;17.23;11.52;;;19.00;99.90;;;;;;4898706;29;20092;-81
2022/07/21 02:40:38;;;;;;;18.23;12.02;;;19.00;99.90;;;;;;4899022;29;20115;-79
2022/07/21 02:43:05;;;;;;;17.77;12.02;;;19.00;99.90;;;;;;4894722;29;20385;-79
2022/07/21 02:45:31;;;;;;;18.98;11.32;;;19.00;99.90;;;;;;4894420;29;20063;-78
2022/07/21 02:47:59;;;;;;;23.42;15.00;;;19.00;99.90;;;;;;4894641;29;20399;-79
2022/07/21 02:50:27;;;;;;;21.45;15.23;;;19.00;99.90;;;;;;4894748;29;20070;-79
2022/07/21 02:52:57;;;;;;;21.33;13.98;;;19.00;99.90;;;;;;4895248;29;20602;-80
2022/07/21 02:55:23;;;;;;;21.48;13.80;;;19.00;99.90;;;;;;4900042;29;20040;-82
2022/07/21 02:57:49;;;;;;;19.55;13.68;;;19.00;99.90;;;;;;4907566;29;20499;-82
2022/07/21 03:00:15;;;;;;;22.98;13.45;;;19.00;99.90;;;;;;4909969;29;20051;-83
2022/07/21 03:02:41;;;;;;;18.02;12.65;;;18.90;99.90;;;;;;4910737;29;20044;-83
2022/07/21 03:05:07;;;;;;;18.02;13.77;;;18.90;99.90;;;;;;4911704;29;20723;-83
2022/07/21 03:07:33;;;;;;;17.75;13.73;;;18.90;99.90;;;;;;4897708;29;20088;-83
2022/07/21 03:09:58;;;;;;;22.17;16.27;;;18.90;99.90;;;;;;4898568;29;20044;-83
2022/07/21 03:12:24;;;;;;;21.27;13.65;;;18.90;99.90;;;;;;4895075;29;20031;-83
2022/07/21 03:14:49;;;;;;;17.75;12.70;;;18.90;99.90;;;;;;4880652;29;20468;-83
2022/07/21 03:17:15;;;;;;;20.35;13.30;;;18.90;99.90;;;;;;4911197;29;20043;-83
2022/07/21 03:19:41;;;;;;;18.45;12.30;;;18.90;99.90;;;;;;4892768;29;20410;-84
2022/07/21 03:22:06;;;;;;;19.15;13.05;;;18.90;99.90;;;;;;4893802;29;20059;-84
2022/07/21 03:24:32;;;;;;;19.55;13.55;;;19.00;99.90;;;;;;4893723;29;20048;-83
2022/07/21 03:26:57;;;;;;;23.23;12.43;;;19.00;99.90;;;;;;4895312;29;20127;-83
2022/07/21 03:29:23;;;;;;;19.77;13.18;;;19.00;99.90;;;;;;4879711;29;20043;-83
2022/07/21 03:31:49;;;;;;;21.75;14.52;;;19.00;99.90;;;;;;4893641;29;20502;-83
2022/07/21 03:34:15;;;;;;;19.20;15.00;;;19.00;99.90;;;;;;4892825;29;20040;-83
2022/07/21 03:36:42;;;;;;;15.38;11.18;;;18.90;99.90;;;;;;4894326;29;20050;-83
2022/07/21 03:39:07;;;;;;;13.35;10.52;;;18.90;99.90;;;;;;4878781;29;20040;-83
2022/07/21 03:41:33;;;;;;;16.00;10.93;;;18.90;99.90;;;;;;4890264;29;20444;-83
2022/07/21 03:43:58;;;;;;;14.50;11.10;;;18.90;99.90;;;;;;4892521;29;20036;-83
2022/07/21 03:46:24;;;;;;;14.65;11.30;;;18.90;99.90;;;;;;4894665;29;20304;-83
2022/07/21 03:48:49;;;;;;;22.35;13.30;;;19.00;99.90;;;;;;4895063;29;20043;-84
2022/07/21 03:51:15;;;;;;;19.77;13.70;;;19.00;99.90;;;;;;4892280;29;20132;-83
2022/07/21 03:53:41;;;;;;;27.17;19.58;;;19.00;99.90;;;;;;4894744;29;20032;-83
2022/07/21 03:56:06;;;;;;;14.70;11.43;;;19.00;99.90;;;;;;4894186;29;20040;-83
2022/07/21 03:58:32;;;;;;;15.68;12.98;;;19.00;99.90;;;;;;4894723;29;20392;-83
2022/07/21 04:00:58;;;;;;;19.05;14.23;;;19.00;99.90;;;;;;4879788;29;20040;-83
2022/07/21 04:03:23;;;;;;;21.92;18.48;;;19.00;99.90;;;;;;4894239;29;20039;-83
2022/07/21 04:05:49;;;;;;;15.65;11.95;;;19.00;99.90;;;;;;4891726;29;20048;-83
2022/07/21 04:08:14;;;;;;;15.52;11.73;;;19.00;99.90;;;;;;4877816;29;20079;-83
2022/07/21 04:10:41;;;;;;;16.33;11.68;;;19.00;99.90;;;;;;4892063;29;20055;-83
2022/07/21 04:13:09;;;;;;;14.68;10.38;;;19.00;99.90;;;;;;4894522;29;20217;-84
2022/07/21 04:15:35;;;;;;;19.92;13.45;;;18.90;99.90;;;;;;4893868;29;20045;-83
2022/07/21 04:18:02;;;;;;;16.83;13.35;;;18.90;99.90;;;;;;4879642;29;20043;-83
2022/07/21 04:20:27;;;;;;;23.30;18.95;;;19.00;99.90;;;;;;4892386;29;20096;-85
2022/07/21 04:22:54;;;;;;;16.42;13.85;;;19.00;99.90;;;;;;4902169;29;20348;-85
2022/07/21 04:25:20;;;;;;;15.68;13.57;;;19.10;99.90;;;;;;4888259;29;20082;-85
2022/07/21 04:27:47;;;;;;;19.73;15.00;;;19.10;99.90;;;;;;4892611;29;20501;-85
2022/07/21 04:30:16;;;;;;;16.30;13.10;;;19.20;99.90;;;;;;4879222;29;20083;-85
2022/07/21 04:32:42;;;;;;;17.70;13.70;;;19.20;99.90;;;;;;4877433;29;20099;-85
2022/07/21 04:35:08;;;;;;;18.55;14.70;;;19.20;99.90;;;;;;4893181;29;20514;-85
2022/07/21 04:37:34;;;;;;;15.57;12.77;;;19.20;99.90;;;;;;4878778;29;20499;-87
2022/07/21 04:40:00;;;;;;;15.27;11.70;;;19.30;99.90;;;;;;4878084;29;20687;-86
2022/07/21 04:42:26;;;;;;;13.10;10.63;;;19.30;99.90;;;;;;4892365;29;20502;-86
2022/07/21 04:44:52;;;;;;;16.38;11.60;;;19.30;99.90;;;;;;4894014;29;20040;-85
2022/07/21 04:47:18;;;;;;;16.88;12.02;;;19.40;99.90;;;;;;4894169;29;20043;-86
2022/07/21 04:49:43;;;;;;;15.65;11.75;;;19.40;99.90;;;;;;4894547;29;20076;-85
2022/07/21 04:52:09;;;;;;;15.07;12.43;;;19.40;99.90;;;;;;4878386;29;20075;-85
2022/07/21 04:54:34;;;;;;;18.58;13.13;;;19.50;99.90;;;;;;4893157;29;20059;-86
2022/07/21 04:57:02;;;;;;;20.42;15.10;;;19.50;99.90;;;;;;4890218;29;20037;-85
2022/07/21 04:59:29;;;;;;;16.02;13.13;;;19.50;99.90;;;;;;4878108;29;20043;-85
2022/07/21 05:01:55;;;;;;;18.13;14.80;;;19.60;99.90;;;;;;4877690;29;20415;-86
2022/07/21 05:04:20;;;;;;;21.05;16.80;;;19.60;99.90;;;;;;4885833;29;20045;-85
2022/07/21 05:06:46;;;;;;;17.42;15.48;;;19.60;99.90;;;;;;4877780;29;20052;-85
2022/07/21 05:09:12;;;;;;;21.45;16.67;;;19.60;99.90;;;;;;4893412;29;20036;-83
2022/07/21 05:11:37;;;;;;;22.90;17.95;;;19.60;99.90;;;;;;4876695;29;20040;-83
2022/07/21 05:14:03;;;;;;;23.20;19.02;;;19.60;99.90;;;;;;4891377;29;20130;-83
2022/07/21 05:16:29;;;;;;;30.00;22.55;;;19.70;99.90;;;;;;4888617;29;20088;-84
2022/07/21 05:18:54;;;;;;;23.05;19.40;;;19.60;99.90;;;;;;4894375;29;20040;-83
2022/07/21 05:21:20;;;;;;;29.00;23.15;;;19.60;99.90;;;;;;4892501;29;20033;-83
2022/07/21 05:23:45;;;;;;;23.60;19.92;;;19.70;99.90;;;;;;4878718;29;20461;-83
2022/07/21 05:26:12;;;;;;;22.90;20.25;;;19.70;99.90;;;;;;4893016;29;20055;-83
2022/07/21 05:28:38;;;;;;;21.23;17.90;;;19.70;99.90;;;;;;4892882;29;20044;-83
2022/07/21 05:31:03;;;;;;;28.75;21.80;;;19.70;99.90;;;;;;4909204;29;20048;-83
2022/07/21 05:33:29;;;;;;;24.67;17.83;;;19.70;99.90;;;;;;4893677;29;20123;-83
2022/07/21 05:35:55;;;;;;;22.77;18.42;;;19.80;99.90;;;;;;4894147;29;20052;-83
2022/07/21 05:38:20;;;;;;;23.58;21.08;;;19.80;99.90;;;;;;4895822;29;20119;-83
2022/07/21 05:40:46;;;;;;;24.10;19.70;;;19.90;99.90;;;;;;4893668;29;20086;-83
2022/07/21 05:43:11;;;;;;;24.92;18.92;;;19.90;99.90;;;;;;4895218;29;20064;-83
2022/07/21 05:45:37;;;;;;;26.90;21.50;;;20.00;99.90;;;;;;4895198;29;20044;-87
2022/07/21 05:48:02;;;;;;;29.48;24.05;;;20.10;99.90;;;;;;4879325;29;20045;-85
2022/07/21 05:50:28;;;;;;;26.40;19.15;;;20.20;99.90;;;;;;4894414;29;20044;-86
2022/07/21 05:52:54;;;;;;;24.33;20.75;;;20.30;99.90;;;;;;4896734;29;20502;-86
2022/07/21 05:55:19;;;;;;;28.33;22.25;;;20.40;99.90;;;;;;4895322;29;20046;-86
2022/07/21 05:57:45;;;;;;;22.85;20.05;;;20.50;99.90;;;;;;4881424;29;20036;-86
2022/07/21 06:00:11;;;;;;;22.05;18.40;;;20.60;99.90;;;;;;4881833;29;20047;-86
2022/07/21 06:02:36;;;;;;;20.92;18.13;;;20.70;99.90;;;;;;4909102;29;20040;-85
2022/07/21 06:05:02;;;;;;;19.85;17.85;;;20.80;99.90;;;;;;4881687;29;20048;-85
2022/07/21 06:07:28;;;;;;;21.33;18.92;;;20.80;99.90;;;;;;4880569;29;20050;-85
2022/07/21 06:09:54;;;;;;;19.23;16.25;;;20.80;99.90;;;;;;4897216;29;20099;-86
2022/07/21 06:12:19;;;;;;;22.08;18.15;;;21.00;99.90;;;;;;4892816;29;20468;-84
2022/07/21 06:14:45;;;;;;;21.13;17.23;;;21.00;99.90;;;;;;4881045;29;20051;-85
2022/07/21 06:17:10;;;;;;;21.63;18.10;;;21.00;99.90;;;;;;4893418;29;20043;-84
2022/07/21 06:19:36;;;;;;;23.23;20.63;;;21.10;99.90;;;;;;4880674;29;20040;-84
2022/07/21 06:22:04;;;;;;;27.20;18.95;;;21.10;99.90;;;;;;4880308;29;20040;-85
2022/07/21 06:24:30;;;;;;;21.30;18.45;;;21.10;99.90;;;;;;4896310;29;20499;-84
2022/07/21 06:26:56;;;;;;;25.50;20.67;;;21.10;99.90;;;;;;4895804;29;20044;-85
2022/07/21 06:29:22;;;;;;;22.50;19.52;;;21.10;99.90;;;;;;4881466;29;20043;-85
2022/07/21 06:31:48;;;;;;;21.77;18.45;;;21.00;99.90;;;;;;4880344;29;20547;-83
2022/07/21 06:34:13;;;;;;;20.30;18.13;;;21.00;99.90;;;;;;4911146;29;20103;-84
2022/07/21 06:36:39;;;;;;;23.08;19.73;;;21.00;99.90;;;;;;4904251;29;20036;-83
2022/07/21 06:39:05;;;;;;;25.20;20.95;;;20.90;99.90;;;;;;4918463;29;20071;-84
2022/07/21 06:41:31;;;;;;;22.80;18.95;;;20.90;99.90;;;;;;4886897;29;20032;-84
2022/07/21 06:43:56;;;;;;;22.10;19.75;;;20.80;99.90;;;;;;4898506;29;20040;-83
2022/07/21 06:46:22;;;;;;;23.85;21.35;;;20.70;99.90;;;;;;4920192;29;20096;-84
2022/07/21 06:48:47;;;;;;;24.48;21.48;;;20.70;99.90;;;;;;4920458;29;20028;-84
2022/07/21 06:51:13;;;;;;;23.38;20.45;;;20.60;99.90;;;;;;4919607;28;20036;-84
2022/07/21 06:53:39;;;;;;;22.20;19.48;;;20.60;99.90;;;;;;4891671;29;20514;-80
2022/07/21 06:56:04;;;;;;;21.60;17.98;;;20.50;99.90;;;;;;4903133;29;20036;-80
2022/07/21 06:58:32;;;;;;;22.83;19.30;;;20.50;99.90;;;;;;4898533;29;20072;-80
2022/07/21 07:00:58;;;;;;;22.23;19.85;;;20.40;99.90;;;;;;4896358;29;20361;-79
2022/07/21 07:03:23;;;;;;;19.70;17.60;;;20.40;99.90;;;;;;4894413;29;20047;-78
2022/07/21 07:05:50;;;;;;;22.95;20.52;;;20.30;99.90;;;;;;4892904;29;20060;-80
2022/07/21 07:08:16;;;;;;;21.65;19.20;;;20.30;99.90;;;;;;4900179;29;20044;-82
2022/07/21 07:10:42;;;;;;;22.00;18.25;;;20.30;99.90;;;;;;4906654;29;20087;-82
2022/07/21 07:13:09;;;;;;;23.08;20.60;;;20.30;99.90;;;;;;4907970;29;20426;-81
2022/07/21 07:15:34;;;;;;;21.73;19.52;;;20.30;99.90;;;;;;4902475;29;20044;-81
2022/07/21 07:18:00;;;;;;;23.67;19.45;;;20.20;99.90;;;;;;4903579;29;20048;-82
2022/07/21 07:20:26;;;;;;;19.90;17.77;;;20.30;99.90;;;;;;4905042;29;20043;-83
2022/07/21 07:22:51;;;;;;;22.30;19.17;;;20.40;99.90;;;;;;4903866;29;20474;-82
2022/07/21 07:25:17;;;;;;;20.40;17.80;;;20.50;99.90;;;;;;4903348;29;20107;-82
2022/07/21 07:27:48;;;;;;;21.08;17.95;;;20.70;99.90;;;;;;4905051;29;20059;-81
2022/07/21 07:30:15;;;;;;;20.55;17.27;;;20.80;99.90;;;;;;4906936;29;20096;-81
2022/07/21 07:32:41;;;;;;;23.40;20.25;;;20.90;99.90;;;;;;4905600;29;20040;-81
2022/07/21 07:35:08;;;;;;;23.30;19.55;;;21.10;99.90;;;;;;4903169;29;20048;-82
2022/07/21 07:37:35;;;;;;;20.80;17.90;;;21.20;99.90;;;;;;4904491;29;20103;-82
2022/07/21 07:40:07;;;;;;;19.60;17.45;;;21.20;99.90;;;;;;4904446;29;20075;-81
2022/07/21 07:42:34;;;;;;;20.60;18.55;;;21.30;99.90;;;;;;4898893;29;20032;-82
2022/07/21 07:44:59;;;;;;;22.02;19.67;;;21.30;99.90;;;;;;4913397;29;20052;-82
2022/07/21 07:47:25;;;;;;;21.92;17.85;;;21.50;99.90;;;;;;4912078;29;20043;-83
2022/07/21 07:49:52;;;;;;;18.83;16.92;;;21.50;99.90;;;;;;4902515;29;20095;-82
2022/07/21 07:52:19;;;;;;;19.17;16.08;;;21.50;99.90;;;;;;4896863;29;20054;-82
2022/07/21 07:54:45;;;;;;;19.88;17.80;;;21.60;99.90;;;;;;4895405;29;20476;-82
2022/07/21 07:57:10;;;;;;;21.02;17.95;;;21.60;99.90;;;;;;4892975;29;20039;-82
2022/07/21 07:59:36;;;;;;;41.38;33.47;;;21.70;99.90;;;;;;4895158;29;20040;-83
2022/07/21 08:02:02;;;;;;;27.17;23.70;;;21.70;99.90;;;;;;4890898;29;20080;-83
2022/07/21 08:04:27;;;;;;;22.58;19.50;;;21.70;99.90;;;;;;4909705;29;20055;-82
2022/07/21 08:06:53;;;;;;;23.95;19.98;;;21.70;99.90;;;;;;4896298;29;20126;-82
2022/07/21 08:09:19;;;;;;;20.83;18.60;;;21.80;99.90;;;;;;4895894;29;20054;-83
2022/07/21 08:11:46;;;;;;;19.23;17.15;;;21.90;99.90;;;;;;4891424;29;20048;-83
2022/07/21 08:14:13;;;;;;;19.70;16.30;;;22.10;99.90;;;;;;4883530;29;20074;-83
2022/07/21 08:16:39;;;;;;;22.98;19.85;;;22.60;99.90;;;;;;4884300;29;20051;-80
2022/07/21 08:19:05;;;;;;;22.98;19.10;;;23.00;99.90;;;;;;4899165;29;20407;-81
2022/07/21 08:21:32;;;;;;;22.02;18.38;;;23.20;99.90;;;;;;4897876;29;20377;-80
2022/07/21 08:23:58;;;;;;;20.67;18.48;;;23.30;99.90;;;;;;4897055;29;20479;-80
2022/07/21 08:26:24;;;;;;;18.80;16.88;;;23.70;99.90;;;;;;4895587;29;20047;-83
2022/07/21 08:28:50;;;;;;;19.42;16.83;;;24.30;99.90;;;;;;4898243;29;20160;-83
2022/07/21 08:31:16;;;;;;;18.63;16.30;;;24.60;99.90;;;;;;4900162;29;20043;-83
2022/07/21 08:33:41;;;;;;;18.15;16.23;;;25.00;99.90;;;;;;4912248;29;20380;-82
2022/07/21 08:36:07;;;;;;;17.38;15.63;;;25.40;99.90;;;;;;4896171;29;20044;-81
2022/07/21 08:38:33;;;;;;;15.82;14.23;;;25.70;99.90;;;;;;4894617;29;20050;-83
2022/07/21 08:40:58;;;;;;;19.35;15.68;;;26.10;99.90;;;;;;4897497;29;20047;-83
2022/07/21 08:43:24;;;;;;;16.10;14.40;;;26.50;99.90;;;;;;4898674;29;20040;-82
2022/07/21 08:45:50;;;;;;;13.82;12.52;;;26.90;99.90;;;;;;4882390;29;20343;-82
2022/07/21 08:48:19;;;;;;;16.10;13.73;;;27.20;99.90;;;;;;4906236;29;20537;-82
2022/07/21 08:50:45;;;;;;;16.90;15.30;;;27.40;99.90;;;;;;4894360;29;20052;-83
2022/07/21 08:53:11;;;;;;;14.38;12.93;;;27.30;99.90;;;;;;4897221;29;20040;-83
2022/07/21 08:55:40;;;;;;;14.77;12.80;;;27.00;99.90;;;;;;4896153;29;20506;-82
2022/07/21 08:58:09;;;;;;;13.25;12.05;;;26.80;99.90;;;;;;4909373;29;20043;-82
2022/07/21 09:00:36;;;;;;;13.85;12.55;;;26.50;99.90;;;;;;4891720;29;20041;-80
2022/07/21 09:03:12;;;;;;;14.25;12.82;;;26.30;99.90;;;;;;4895759;29;20091;-82
2022/07/21 09:05:38;;;;;;;14.60;13.20;;;26.10;99.90;;;;;;4900916;29;20060;-80
2022/07/21 09:08:04;;;;;;;13.30;11.95;;;26.40;99.90;;;;;;4899514;29;20070;-82
2022/07/21 09:10:31;;;;;;;15.20;13.73;;;26.50;99.90;;;;;;4884366;29;20047;-80
2022/07/21 09:12:59;;;;;;;16.02;14.38;;;26.60;99.90;;;;;;4899970;29;20123;-79
2022/07/21 09:15:27;;;;;;;15.30;13.90;;;26.90;99.90;;;;;;4900811;29;20047;-80
2022/07/21 09:18:07;;;;;;;14.82;12.90;;;27.30;99.90;;;;;;4898952;29;20036;-80
2022/07/21 09:20:34;;;;;;;14.25;12.85;;;27.60;99.90;;;;;;4896334;29;20040;-79
2022/07/21 09:23:12;;;;;;;15.55;13.95;;;27.70;99.90;;;;;;4882157;29;20048;-81
2022/07/21 09:25:37;;;;;;;13.80;12.50;;;27.80;99.90;;;;;;4899829;29;20051;-79
2022/07/21 09:28:27;;;;;;;15.63;14.13;;;27.70;99.90;;;;;;4884610;29;20044;-79
2022/07/21 09:31:07;;;;;;;17.13;13.13;;;27.60;99.90;;;;;;4887170;29;20055;-80
2022/07/21 09:33:36;;;;;;;15.48;13.93;;;27.30;99.90;;;;;;4915981;29;20583;-80
2022/07/21 09:36:10;;;;;;;14.45;13.05;;;27.00;99.90;;;;;;4897082;29;20046;-79
2022/07/21 09:38:39;;;;;;;17.85;16.05;;;26.90;99.90;;;;;;4900171;29;20074;-80
2022/07/21 09:41:13;;;;;;;16.08;14.38;;;26.80;99.90;;;;;;4902845;29;20049;-79
2022/07/21 09:43:45;;;;;;;15.35;13.77;;;26.70;99.90;;;;;;4903226;29;20079;-80
2022/07/21 09:46:24;;;;;;;15.48;13.98;;;26.80;99.90;;;;;;4902410;29;20044;-79
2022/07/21 09:48:53;;;;;;;14.90;13.32;;;26.70;99.90;;;;;;4900496;29;20487;-79
2022/07/21 09:51:31;;;;;;;15.93;14.43;;;26.50;99.90;;;;;;4897679;29;20044;-80
2022/07/21 09:53:59;;;;;;;15.73;14.23;;;26.40;99.90;;;;;;4897853;29;20471;-80
2022/07/21 09:56:27;;;;;;;16.15;14.55;;;26.20;99.90;;;;;;4892319;29;20046;-79
2022/07/21 09:58:55;;;;;;;15.85;14.18;;;26.00;99.90;;;;;;4894109;29;20031;-81
2022/07/21 10:01:21;;;;;;;16.77;15.07;;;25.80;99.90;;;;;;4883391;29;20424;-78
2022/07/21 10:03:48;;;;;;;14.82;13.38;;;25.80;99.90;;;;;;4901862;29;20465;-80
2022/07/21 10:06:19;;;;;;;15.10;13.70;;;25.70;99.90;;;;;;4898386;29;20075;-80
2022/07/21 10:08:46;;;;;;;14.07;12.65;;;25.70;99.90;;;;;;4896767;29;20040;-80
2022/07/21 10:11:12;;;;;;;17.67;14.55;;;25.60;99.90;;;;;;4896627;29;20064;-79
2022/07/21 10:13:39;;;;;;;16.60;14.90;;;25.60;99.90;;;;;;4897608;29;20071;-79
2022/07/21 10:16:05;;;;;;;15.35;13.75;;;25.60;99.90;;;;;;4898515;29;20071;-78
2022/07/21 10:18:39;;;;;;;16.10;14.48;;;25.50;99.90;;;;;;4899104;29;20040;-78
2022/07/21 10:21:18;;;;;;;16.38;14.55;;;25.60;99.90;;;;;;4899180;29;20235;-79
2022/07/21 10:23:44;;;;;;;19.27;17.42;;;25.80;99.90;;;;;;4900803;29;20059;-79
2022/07/21 10:26:11;;;;;;;19.42;17.42;;;26.00;99.90;;;;;;4900813;29;20047;-78
2022/07/21 10:28:37;;;;;;;14.90;12.77;;;26.20;99.90;;;;;;4901758;29;20152;-82
2022/07/21 10:31:16;;;;;;;16.15;14.38;;;26.30;99.90;;;;;;4885171;29;20052;-80
2022/07/21 10:33:44;;;;;;;14.02;12.57;;;26.60;99.90;;;;;;4902246;29;20052;-79
2022/07/21 10:36:28;;;;;;;14.55;13.05;;;26.70;99.90;;;;;;4903918;29;20467;-78
2022/07/21 10:39:06;;;;;;;20.03;15.27;;;26.70;99.90;;;;;;4905437;29;20553;-80
2022/07/21 10:41:46;;;;;;;17.08;14.32;;;26.60;99.90;;;;;;4910740;29;20300;-80
2022/07/21 10:44:27;;;;;;;15.68;14.02;;;26.40;99.90;;;;;;4911837;29;20045;-81
2022/07/21 10:47:09;;;;;;;18.70;15.80;;;26.30;99.90;;;;;;4908517;29;20103;-79
2022/07/21 10:49:50;;;;;;;22.00;18.73;;;26.20;99.90;;;;;;4907085;29;20059;-80
2022/07/21 10:52:34;;;;;;;18.42;15.98;;;26.00;99.90;;;;;;4890927;29;20147;-83
2022/07/21 10:55:28;;;;;;;17.83;15.75;;;25.80;99.90;;;;;;4898420;29;20052;-83
2022/07/21 10:58:14;;;;;;;18.58;16.58;;;25.30;99.90;;;;;;4899272;29;20054;-84
2022/07/21 11:00:47;;;;;;;21.45;18.25;;;25.00;99.90;;;;;;4898817;29;20419;-83
2022/07/21 11:03:23;;;;;;;22.60;20.17;;;24.60;99.90;;;;;;4886694;29;20084;-84
2022/07/21 11:06:19;;;;;;;22.60;20.08;;;24.30;99.90;;;;;;4898835;29;20131;-83
2022/07/21 11:08:47;;;;;;;21.15;18.90;;;24.00;99.90;;;;;;4899999;29;20063;-86
2022/07/21 11:11:21;;;;;;;21.60;18.63;;;23.80;99.90;;;;;;4881439;29;20044;-86
2022/07/21 11:14:05;;;;;;;25.15;20.60;;;23.80;99.90;;;;;;4884501;29;20546;-86
2022/07/21 11:16:54;;;;;;;22.42;17.88;;;23.80;99.90;;;;;;4901447;29;20043;-85
2022/07/21 11:19:50;;;;;;;25.15;22.27;;;23.80;99.90;;;;;;4886953;29;20036;-79
2022/07/21 11:22:17;;;;;;;;;;;23.80;99.90;;;;;;4897621;29;20476;-80
2022/07/21 11:24:48;;;;;;;21.83;19.48;;;23.60;99.90;;;;;;4902905;29;19919;-82
2022/07/21 11:27:19;;;;;;;23.65;20.15;;;23.60;99.90;;;;;;4900011;29;20515;-83
2022/07/21 11:29:46;;;;;;;29.20;23.05;;;23.50;99.90;;;;;;4900411;29;20301;-84
2022/07/21 11:32:13;;;;;;;26.27;22.52;;;23.60;99.90;;;;;;4900075;29;20543;-84
2022/07/21 11:34:44;;;;;;;27.35;23.30;;;23.70;99.90;;;;;;4900976;29;20048;-83
2022/07/21 11:37:12;;;;;;;24.98;22.30;;;23.80;99.90;;;;;;4890616;29;20420;-81
2022/07/21 11:39:38;;;;;;;26.85;22.80;;;23.80;99.90;;;;;;4892210;29;20068;-82
2022/07/21 11:42:10;;;;;;;24.85;20.42;;;24.00;99.90;;;;;;4893530;29;20037;-81
2022/07/21 11:44:36;;;;;;;24.92;20.63;;;24.10;99.90;;;;;;4909442;29;20040;-81
2022/07/21 11:47:05;;;;;;;27.48;22.35;;;24.20;99.90;;;;;;4908545;29;20039;-80
2022/07/21 11:49:31;;;;;;;26.73;21.42;;;24.10;99.90;;;;;;4891058;29;20103;-82
2022/07/21 11:52:06;;;;;;;25.13;21.90;;;24.10;99.90;;;;;;4904594;29;20454;-80
2022/07/21 11:54:42;;;;;;;27.15;24.02;;;24.20;99.90;;;;;;4904455;29;20063;-81
2022/07/21 11:57:08;;;;;;;29.17;24.27;;;24.30;99.90;;;;;;4886324;29;20047;-79
2022/07/21 11:59:35;;;;;;;26.58;22.75;;;24.50;99.90;;;;;;4901941;29;20043;-82
2022/07/21 12:02:13;;;;;;;26.60;23.63;;;24.70;99.90;;;;;;4905429;29;20047;-82
2022/07/21 12:04:38;;;;;;;24.17;21.52;;;25.00;99.90;;;;;;4906047;29;20040;-82
2022/07/21 12:07:10;;;;;;;24.75;22.30;;;25.20;99.90;;;;;;4907118;29;20048;-82
2022/07/21 12:09:36;;;;;;;25.70;22.70;;;25.50;99.90;;;;;;4906918;29;20075;-82
2022/07/21 12:12:02;;;;;;;26.35;22.40;;;25.80;99.90;;;;;;4906488;29;20047;-82
2022/07/21 12:14:54;;;;;;;25.95;22.48;;;26.00;99.90;;;;;;4905476;29;20055;-81
2022/07/21 12:17:47;;;;;;;23.40;19.83;;;26.10;99.90;;;;;;4903607;29;20055;-82
2022/07/21 12:20:14;;;;;;;27.70;24.70;;;26.00;99.90;;;;;;4904199;29;20052;-81
2022/07/21 12:22:44;;;;;;;18.48;14.48;;;26.00;99.90;;;;;;4906235;29;20085;-81
2022/07/21 12:25:11;;;;;;;14.75;12.02;;;25.80;99.90;;;;;;4906152;29;20054;-82
2022/07/21 12:27:38;;;;;;;14.10;12.60;;;25.40;99.90;;;;;;4905622;29;20052;-82
2022/07/21 12:30:06;;;;;;;13.23;11.77;;;24.90;99.90;;;;;;4868646;29;20523;-86
2022/07/21 12:32:47;;;;;;;13.15;10.10;;;24.50;99.90;;;;;;4889383;29;20073;-82
2022/07/21 12:35:22;;;;;;;11.82;10.55;;;24.20;99.90;;;;;;4898904;29;20048;-83